DOC95 ENLU-ENTO
Flight info
| Callsign | DOC95 |
|---|---|
| Flight time | 0h 29m |
| Altitude | 3000 |
| Route | DIRECT |
| Aircraft | EC45/L-V/C |
Departure
| Time | 2026-05-05 18:19 |
|---|---|
| Airport | Lunde Nome Airfield (ENLU) |
Arrival
| Time | 2026-05-05 18:48 |
|---|---|
| Airport | Sandefjord Airport, Torp (ENTO) |
| Time | Latitude | Longitude | Altitude | Speed | Heading |
|---|---|---|---|---|---|
| 2026-05-05 18:18 | 59.29724 | 9.13594 | 261 ft | 0 kts | 288° |
| 2026-05-05 18:19 | 59.29788 | 9.13279 | 252 ft | 59 kts | 292° |
| 2026-05-05 18:19 | 59.29997 | 9.12269 | 414 ft | 90 kts | 291° |
| 2026-05-05 18:19 | 59.30059 | 9.11101 | 773 ft | 95 kts | 251° |
| 2026-05-05 18:19 | 59.29509 | 9.10411 | 1025 ft | 108 kts | 181° |
| 2026-05-05 18:20 | 59.28710 | 9.10960 | 1150 ft | 130 kts | 150° |
| 2026-05-05 18:20 | 59.28159 | 9.11474 | 1322 ft | 133 kts | 151° |
| 2026-05-05 18:20 | 59.26999 | 9.12452 | 1564 ft | 139 kts | 152° |
| 2026-05-05 18:20 | 59.26103 | 9.13214 | 1741 ft | 139 kts | 154° |
| 2026-05-05 18:21 | 59.25245 | 9.14043 | 1941 ft | 136 kts | 152° |
| 2026-05-05 18:21 | 59.24409 | 9.14909 | 2077 ft | 136 kts | 150° |
| 2026-05-05 18:21 | 59.23565 | 9.15790 | 2080 ft | 137 kts | 151° |
| 2026-05-05 18:21 | 59.22724 | 9.16667 | 2071 ft | 136 kts | 151° |
| 2026-05-05 18:22 | 59.21891 | 9.17536 | 2069 ft | 136 kts | 151° |
| 2026-05-05 18:22 | 59.21331 | 9.18121 | 2068 ft | 135 kts | 151° |
| 2026-05-05 18:22 | 59.20532 | 9.19070 | 2067 ft | 134 kts | 137° |
| 2026-05-05 18:22 | 59.20053 | 9.20578 | 2063 ft | 131 kts | 100° |
| 2026-05-05 18:23 | 59.20070 | 9.22290 | 2068 ft | 125 kts | 68° |
| 2026-05-05 18:23 | 59.20330 | 9.23895 | 2066 ft | 124 kts | 62° |
| 2026-05-05 18:23 | 59.20618 | 9.25482 | 2066 ft | 124 kts | 62° |
| 2026-05-05 18:23 | 59.20908 | 9.27060 | 2067 ft | 123 kts | 62° |
| 2026-05-05 18:24 | 59.21200 | 9.28650 | 2058 ft | 125 kts | 62° |
| 2026-05-05 18:24 | 59.21490 | 9.30244 | 2058 ft | 125 kts | 62° |
| 2026-05-05 18:24 | 59.21778 | 9.31834 | 2061 ft | 123 kts | 63° |
| 2026-05-05 18:24 | 59.22063 | 9.33418 | 2057 ft | 124 kts | 62° |
| 2026-05-05 18:25 | 59.22349 | 9.35006 | 2057 ft | 125 kts | 62° |
| 2026-05-05 18:25 | 59.22540 | 9.36069 | 2064 ft | 124 kts | 62° |
| 2026-05-05 18:25 | 59.22921 | 9.38185 | 2064 ft | 124 kts | 63° |
| 2026-05-05 18:25 | 59.23208 | 9.39768 | 2063 ft | 124 kts | 63° |
| 2026-05-05 18:26 | 59.23493 | 9.41347 | 2060 ft | 123 kts | 63° |
| 2026-05-05 18:26 | 59.23775 | 9.42912 | 2059 ft | 124 kts | 62° |
| 2026-05-05 18:26 | 59.24060 | 9.44500 | 2061 ft | 124 kts | 62° |
| 2026-05-05 18:26 | 59.24348 | 9.46088 | 2054 ft | 124 kts | 65° |
| 2026-05-05 18:27 | 59.24630 | 9.47668 | 2061 ft | 123 kts | 63° |
| 2026-05-05 18:27 | 59.24908 | 9.49248 | 2055 ft | 124 kts | 65° |
| 2026-05-05 18:27 | 59.25119 | 9.50903 | 2054 ft | 126 kts | 73° |
| 2026-05-05 18:27 | 59.25236 | 9.52610 | 2054 ft | 127 kts | 79° |
| 2026-05-05 18:28 | 59.25266 | 9.56143 | 2059 ft | 130 kts | 85° |
| 2026-05-05 18:28 | 59.25211 | 9.57921 | 2057 ft | 132 kts | 88° |
| 2026-05-05 18:28 | 59.25123 | 9.59703 | 2051 ft | 132 kts | 90° |
| 2026-05-05 18:29 | 59.25006 | 9.61509 | 2057 ft | 134 kts | 91° |
| 2026-05-05 18:29 | 59.24875 | 9.63304 | 2051 ft | 133 kts | 95° |
| 2026-05-05 18:29 | 59.24730 | 9.65088 | 2057 ft | 132 kts | 93° |
| 2026-05-05 18:29 | 59.24580 | 9.66853 | 2055 ft | 132 kts | 93° |
| 2026-05-05 18:30 | 59.24425 | 9.68610 | 2057 ft | 131 kts | 96° |
| 2026-05-05 18:30 | 59.24265 | 9.70351 | 2054 ft | 130 kts | 97° |
| 2026-05-05 18:30 | 59.24095 | 9.72105 | 2057 ft | 133 kts | 98° |
| 2026-05-05 18:30 | 59.23926 | 9.73866 | 2059 ft | 131 kts | 97° |
| 2026-05-05 18:31 | 59.23762 | 9.75602 | 2056 ft | 130 kts | 97° |
| 2026-05-05 18:31 | 59.23591 | 9.77352 | 2057 ft | 131 kts | 98° |
| 2026-05-05 18:31 | 59.23419 | 9.79102 | 2065 ft | 131 kts | 97° |
| 2026-05-05 18:31 | 59.23246 | 9.80835 | 2172 ft | 130 kts | 98° |
| 2026-05-05 18:32 | 59.23068 | 9.82570 | 2303 ft | 130 kts | 98° |
| 2026-05-05 18:32 | 59.22887 | 9.84326 | 2423 ft | 134 kts | 99° |
| 2026-05-05 18:32 | 59.22708 | 9.86073 | 2556 ft | 133 kts | 98° |
| 2026-05-05 18:32 | 59.22528 | 9.87830 | 2689 ft | 132 kts | 98° |
| 2026-05-05 18:33 | 59.22353 | 9.89572 | 2819 ft | 130 kts | 97° |
| 2026-05-05 18:33 | 59.22175 | 9.91334 | 2951 ft | 131 kts | 98° |
| 2026-05-05 18:33 | 59.21998 | 9.93084 | 3079 ft | 134 kts | 96° |
| 2026-05-05 18:33 | 59.22054 | 9.94845 | 3213 ft | 128 kts | 64° |
| 2026-05-05 18:34 | 59.22545 | 9.96227 | 3344 ft | 123 kts | 39° |
| 2026-05-05 18:34 | 59.23169 | 9.97370 | 3489 ft | 124 kts | 36° |
| 2026-05-05 18:34 | 59.23808 | 9.98501 | 3607 ft | 124 kts | 36° |
| 2026-05-05 18:34 | 59.24450 | 9.99631 | 3743 ft | 125 kts | 36° |
| 2026-05-05 18:35 | 59.25089 | 10.00760 | 3895 ft | 124 kts | 36° |
| 2026-05-05 18:35 | 59.25739 | 10.01895 | 3959 ft | 126 kts | 35° |
| 2026-05-05 18:35 | 59.26391 | 10.03034 | 3984 ft | 125 kts | 35° |
| 2026-05-05 18:35 | 59.27044 | 10.04165 | 3995 ft | 125 kts | 35° |
| 2026-05-05 18:36 | 59.27694 | 10.05298 | 4002 ft | 125 kts | 34° |
| 2026-05-05 18:36 | 59.28342 | 10.06427 | 3999 ft | 125 kts | 35° |
| 2026-05-05 18:36 | 59.28989 | 10.07549 | 4005 ft | 124 kts | 34° |
| 2026-05-05 18:36 | 59.29634 | 10.08677 | 4005 ft | 125 kts | 36° |
| 2026-05-05 18:37 | 59.30284 | 10.09801 | 4007 ft | 124 kts | 35° |
| 2026-05-05 18:37 | 59.30932 | 10.10922 | 4006 ft | 125 kts | 35° |
| 2026-05-05 18:37 | 59.31576 | 10.12043 | 4008 ft | 125 kts | 35° |
| 2026-05-05 18:37 | 59.32225 | 10.13164 | 4005 ft | 125 kts | 35° |
| 2026-05-05 18:38 | 59.32877 | 10.14293 | 3921 ft | 125 kts | 34° |
| 2026-05-05 18:38 | 59.33522 | 10.15409 | 3792 ft | 123 kts | 34° |
| 2026-05-05 18:38 | 59.34167 | 10.16526 | 3660 ft | 124 kts | 34° |
| 2026-05-05 18:38 | 59.34809 | 10.17655 | 3534 ft | 124 kts | 34° |
| 2026-05-05 18:39 | 59.35450 | 10.18780 | 3399 ft | 124 kts | 34° |
| 2026-05-05 18:39 | 59.36086 | 10.19902 | 3269 ft | 123 kts | 34° |
| 2026-05-05 18:39 | 59.36722 | 10.21017 | 3106 ft | 123 kts | 34° |
| 2026-05-05 18:39 | 59.37360 | 10.22144 | 3016 ft | 123 kts | 35° |
| 2026-05-05 18:40 | 59.37997 | 10.23264 | 2984 ft | 123 kts | 35° |
| 2026-05-05 18:40 | 59.38633 | 10.24382 | 2969 ft | 123 kts | 35° |
| 2026-05-05 18:40 | 59.39269 | 10.25501 | 2962 ft | 123 kts | 35° |
| 2026-05-05 18:40 | 59.39903 | 10.26616 | 2959 ft | 122 kts | 35° |
| 2026-05-05 18:41 | 59.40527 | 10.27759 | 2950 ft | 124 kts | 42° |
| 2026-05-05 18:41 | 59.40877 | 10.29327 | 2953 ft | 130 kts | 77° |
| 2026-05-05 18:41 | 59.40728 | 10.31069 | 2952 ft | 133 kts | 112° |
| 2026-05-05 18:41 | 59.40114 | 10.32402 | 2953 ft | 133 kts | 147° |
| 2026-05-05 18:42 | 59.39247 | 10.32873 | 2956 ft | 129 kts | 182° |
| 2026-05-05 18:42 | 59.38390 | 10.32476 | 2954 ft | 126 kts | 202° |
| 2026-05-05 18:42 | 59.37581 | 10.31840 | 2954 ft | 124 kts | 209° |
| 2026-05-05 18:42 | 59.36850 | 10.30982 | 2954 ft | 121 kts | 221° |
| 2026-05-05 18:43 | 59.36345 | 10.29699 | 2959 ft | 118 kts | 242° |
| 2026-05-05 18:43 | 59.35947 | 10.28296 | 2957 ft | 118 kts | 244° |
| 2026-05-05 18:43 | 59.35560 | 10.26886 | 2954 ft | 118 kts | 244° |
| 2026-05-05 18:43 | 59.35064 | 10.25603 | 2955 ft | 122 kts | 220° |
| 2026-05-05 18:44 | 59.34257 | 10.25054 | 2954 ft | 128 kts | 186° |
| 2026-05-05 18:44 | 59.33361 | 10.25126 | 2955 ft | 129 kts | 176° |
| 2026-05-05 18:44 | 59.32463 | 10.25259 | 2950 ft | 130 kts | 178° |
| 2026-05-05 18:44 | 59.31559 | 10.25343 | 2820 ft | 129 kts | 179° |
| 2026-05-05 18:45 | 59.30664 | 10.25400 | 2633 ft | 129 kts | 179° |
| 2026-05-05 18:45 | 59.29772 | 10.25438 | 2448 ft | 127 kts | 182° |
| 2026-05-05 18:45 | 59.28888 | 10.25465 | 2259 ft | 127 kts | 182° |
| 2026-05-05 18:45 | 59.28005 | 10.25496 | 2083 ft | 127 kts | 182° |
| 2026-05-05 18:46 | 59.27123 | 10.25531 | 1907 ft | 126 kts | 182° |
| 2026-05-05 18:46 | 59.26248 | 10.25567 | 1723 ft | 125 kts | 181° |
| 2026-05-05 18:46 | 59.25373 | 10.25598 | 1532 ft | 126 kts | 181° |
| 2026-05-05 18:46 | 59.24513 | 10.25628 | 1348 ft | 122 kts | 182° |
| 2026-05-05 18:47 | 59.23672 | 10.25660 | 1165 ft | 121 kts | 180° |
| 2026-05-05 18:47 | 59.22843 | 10.25694 | 987 ft | 114 kts | 181° |
| 2026-05-05 18:47 | 59.22080 | 10.25720 | 831 ft | 108 kts | 181° |
| 2026-05-05 18:47 | 59.21328 | 10.25744 | 681 ft | 108 kts | 181° |
| 2026-05-05 18:48 | 59.20569 | 10.25770 | 531 ft | 110 kts | 181° |
| 2026-05-05 18:48 | 59.19818 | 10.25801 | 386 ft | 107 kts | 182° |
| 2026-05-05 18:48 | 59.19134 | 10.25845 | 365 ft | 85 kts | 182° |
| 2026-05-05 18:48 | 59.18697 | 10.25807 | 337 ft | 33 kts | 239° |
| 2026-05-05 18:49 | 59.18675 | 10.25630 | 286 ft | 2 kts | 282° |
| 2026-05-05 18:49 | 59.18680 | 10.25623 | 282 ft | 2 kts | 200° |
| 2026-05-05 18:49 | 59.18678 | 10.25613 | 281 ft | 0 kts | 101° |